Time;durP1;ratioP1;P1;durP2;ratioP2;P2;SDS_P1;SDS_P2;PMS_P1;PMS_P2;Temp;Humidity;BMP_temperature;BMP_pressure;BME280_temperature;BME280_humidity;BME280_pressure;Samples;Min_cycle;Max_cycle;Signal;HPM_P1;HPM_P2
2023/08/13 00:01:57;;;;;;;0.05;0.05;;;;;;;25.48;54.30;101670.09;5010996;28;20030;-68
2023/08/13 00:04:22;;;;;;;0.00;0.00;;;;;;;24.76;56.64;101673.56;5009986;28;20486;-69
2023/08/13 00:06:47;;;;;;;0.00;0.00;;;;;;;25.35;55.37;101661.78;5011082;28;20034;-70
2023/08/13 00:09:13;;;;;;;0.00;0.00;;;;;;;25.60;54.48;101667.66;5011208;28;20030;-70
2023/08/13 00:11:38;;;;;;;0.03;0.03;;;;;;;25.65;53.64;101664.00;5010784;28;20034;-69
2023/08/13 00:14:04;;;;;;;0.00;0.00;;;;;;;25.74;53.10;101670.41;5011019;28;20487;-69
2023/08/13 00:16:29;;;;;;;0.10;0.10;;;;;;;25.64;53.90;101673.38;5011221;28;20022;-69
2023/08/13 00:18:54;;;;;;;0.00;0.00;;;;;;;25.35;54.61;101668.13;5010923;28;20033;-68
2023/08/13 00:21:20;;;;;;;0.00;0.00;;;;;;;25.04;55.31;101667.84;5010818;28;20029;-69
2023/08/13 00:23:45;;;;;;;0.05;0.05;;;;;;;26.05;52.40;101660.38;5010892;28;20497;-70
2023/08/13 00:26:11;;;;;;;0.03;0.03;;;;;;;26.01;52.96;101671.22;5010554;28;20041;-68
2023/08/13 00:28:36;;;;;;;0.00;0.00;;;;;;;25.93;53.08;101671.13;5010971;28;20034;-69
2023/08/13 00:31:02;;;;;;;0.10;0.10;;;;;;;26.14;51.80;101671.53;5005701;28;20037;-69
2023/08/13 00:33:27;;;;;;;0.10;0.10;;;;;;;25.86;53.05;101663.28;5009238;28;20041;-68
2023/08/13 00:35:52;;;;;;;0.00;0.00;;;;;;;25.32;55.18;101657.72;5010452;28;20386;-68
2023/08/13 00:38:18;;;;;;;0.00;0.00;;;;;;;25.37;54.65;101663.13;5010348;28;20034;-68
2023/08/13 00:40:44;;;;;;;0.05;0.05;;;;;;;25.18;55.04;101665.13;5010837;28;20037;-69
2023/08/13 00:43:09;;;;;;;0.03;0.03;;;;;;;25.00;55.33;101666.81;5010366;28;20041;-69
2023/08/13 00:45:35;;;;;;;0.05;0.05;;;;;;;24.68;56.89;101663.22;5010392;28;20049;-70
2023/08/13 00:48:02;;;;;;;0.10;0.10;;;;;;;24.39;57.89;101657.91;5011767;28;20509;-69
2023/08/13 00:50:28;;;;;;;0.10;0.10;;;;;;;24.39;57.93;101664.19;5010397;28;20505;-69
2023/08/13 00:52:54;;;;;;;0.00;0.00;;;;;;;24.48;58.21;101660.75;5011778;28;20464;-69
2023/08/13 00:55:19;;;;;;;0.08;0.08;;;;;;;25.08;55.93;101657.88;5016598;28;20026;-68
2023/08/13 00:57:45;;;;;;;0.00;0.00;;;;;;;24.53;57.09;101661.50;5014658;28;20079;-69
2023/08/13 01:00:11;;;;;;;0.10;0.10;;;;;;;23.87;59.97;101664.34;5025007;28;20246;-69
2023/08/13 01:02:37;;;;;;;0.00;0.00;;;;;;;24.30;58.24;101665.16;5018904;28;20029;-69
2023/08/13 01:05:05;;;;;;;0.00;0.00;;;;;;;24.15;58.96;101668.94;5018056;28;20486;-69
2023/08/13 01:07:54;;;;;;;0.10;0.10;;;;;;;23.99;59.29;101663.91;5011025;28;20070;-70
2023/08/13 01:10:22;;;;;;;0.03;0.03;;;;;;;24.73;57.16;101660.41;5002901;28;20620;-69
2023/08/13 01:13:19;;;;;;;0.10;0.10;;;;;;;23.83;60.18;101668.78;5027844;28;20044;-69
2023/08/13 01:15:45;;;;;;;0.00;0.00;;;;;;;23.94;59.45;101670.28;5012139;28;20064;-70
2023/08/13 01:18:13;;;;;;;0.10;0.10;;;;;;;24.66;57.37;101673.69;5016921;28;20029;-68
2023/08/13 01:20:41;;;;;;;0.00;0.00;;;;;;;24.85;56.12;101663.50;5018813;28;20060;-69
2023/08/13 01:23:07;;;;;;;0.10;0.10;;;;;;;24.55;57.12;101663.97;5017066;28;20508;-68
2023/08/13 01:25:33;;;;;;;0.10;0.10;;;;;;;24.89;56.22;101661.78;5010573;28;20037;-67
2023/08/13 01:28:35;;;;;;;0.00;0.00;;;;;;;24.52;57.63;101665.38;5009641;28;20547;-69
2023/08/13 01:31:31;;;;;;;0.10;0.10;;;;;;;24.18;59.32;101667.50;5016229;28;20041;-69
2023/08/13 01:33:58;;;;;;;0.10;0.10;;;;;;;24.16;58.85;101669.75;5003361;28;20034;-68
2023/08/13 01:36:25;;;;;;;0.10;0.10;;;;;;;24.43;58.16;101665.22;4987643;28;20145;-69
2023/08/13 01:38:52;;;;;;;0.10;0.10;;;;;;;24.60;57.15;101667.47;4987370;28;20053;-69
2023/08/13 01:41:18;;;;;;;0.10;0.10;;;;;;;24.69;56.74;101667.56;4991725;28;20132;-68
2023/08/13 01:43:44;;;;;;;0.03;0.03;;;;;;;25.07;55.92;101671.94;4989633;28;20042;-70
2023/08/13 01:46:09;;;;;;;0.10;0.10;;;;;;;24.66;57.18;101666.25;4986315;28;20529;-69
2023/08/13 01:48:34;;;;;;;0.03;0.03;;;;;;;24.40;57.33;101665.00;4988031;28;20030;-70
2023/08/13 01:51:00;;;;;;;0.10;0.10;;;;;;;24.02;58.92;101664.16;4986600;28;20034;-70
2023/08/13 01:53:25;;;;;;;0.00;0.00;;;;;;;24.65;57.22;101658.31;4986618;28;20034;-68
2023/08/13 01:55:51;;;;;;;0.10;0.10;;;;;;;24.30;58.24;101654.16;4986462;28;20030;-69
2023/08/13 01:58:16;;;;;;;0.10;0.10;;;;;;;24.52;56.94;101662.63;4986936;28;20674;-69
2023/08/13 02:00:41;;;;;;;0.10;0.10;;;;;;;24.25;58.47;101657.78;4986306;28;20034;-70
2023/08/13 02:03:07;;;;;;;0.00;0.00;;;;;;;24.60;57.23;101659.22;4986273;28;20045;-69
2023/08/13 02:05:32;;;;;;;0.10;0.10;;;;;;;24.73;56.89;101658.47;4986478;28;20030;-70
2023/08/13 02:07:58;;;;;;;0.05;0.05;;;;;;;24.71;56.66;101660.66;4986331;28;20018;-68
2023/08/13 02:10:24;;;;;;;0.00;0.00;;;;;;;24.49;57.18;101657.72;4998608;28;20619;-68
2023/08/13 02:12:49;;;;;;;0.10;0.10;;;;;;;24.41;57.67;101661.97;5008808;28;20041;-69
2023/08/13 02:15:14;;;;;;;0.00;0.00;;;;;;;24.20;58.52;101660.63;5007179;28;20037;-69
2023/08/13 02:17:40;;;;;;;0.10;0.10;;;;;;;24.01;58.92;101658.94;5008333;28;20030;-69
2023/08/13 02:20:08;;;;;;;0.00;0.00;;;;;;;24.57;57.35;101661.75;5008630;28;20073;-69
2023/08/13 02:22:34;;;;;;;0.10;0.10;;;;;;;23.98;59.16;101654.84;5009402;28;20045;-69
2023/08/13 02:24:59;;;;;;;0.10;0.10;;;;;;;24.02;59.03;101661.41;5008682;28;20129;-69
2023/08/13 02:27:24;;;;;;;0.10;0.10;;;;;;;23.72;60.54;101659.03;5008833;28;20037;-69
2023/08/13 02:29:50;;;;;;;0.10;0.10;;;;;;;23.57;60.47;101661.94;5015783;28;20034;-69
2023/08/13 02:32:15;;;;;;;0.10;0.10;;;;;;;23.72;60.14;101658.22;5014128;28;20041;-69
2023/08/13 02:34:45;;;;;;;0.10;0.10;;;;;;;24.40;58.17;101651.28;5018776;28;20387;-67
2023/08/13 02:37:11;;;;;;;0.10;0.10;;;;;;;24.27;58.11;101652.81;5009528;28;20064;-69
2023/08/13 02:39:36;;;;;;;0.00;0.00;;;;;;;24.69;56.70;101648.34;5008852;28;20042;-68
2023/08/13 02:42:02;;;;;;;0.10;0.10;;;;;;;24.68;56.72;101646.72;5020346;28;20629;-68
2023/08/13 02:44:27;;;;;;;0.10;0.10;;;;;;;24.42;57.28;101649.03;5018457;28;20056;-68
2023/08/13 02:46:53;;;;;;;0.10;0.10;;;;;;;24.50;57.35;101651.13;5022561;28;20068;-69
2023/08/13 02:49:18;;;;;;;0.00;0.00;;;;;;;24.17;58.17;101655.72;5013058;28;20367;-68
2023/08/13 02:51:44;;;;;;;0.10;0.10;;;;;;;23.64;59.30;101650.63;5012735;28;20045;-69
2023/08/13 02:54:10;;;;;;;0.10;0.10;;;;;;;22.58;62.92;101657.88;5019774;28;20203;-70
2023/08/13 02:56:35;;;;;;;0.00;0.00;;;;;;;23.00;62.50;101651.78;5020908;28;20041;-68
2023/08/13 02:59:00;;;;;;;0.10;0.10;;;;;;;23.34;61.44;101651.78;5021219;28;20058;-70
2023/08/13 03:01:26;;;;;;;0.10;0.10;;;;;;;23.68;59.98;101651.66;5012810;28;20072;-70
2023/08/13 03:03:52;;;;;;;0.10;0.10;;;;;;;23.87;59.32;101647.03;5012714;28;20425;-70
2023/08/13 03:06:22;;;;;;;0.10;0.10;;;;;;;23.26;61.14;101655.13;5019271;28;20449;-69
2023/08/13 03:08:48;;;;;;;0.10;0.10;;;;;;;22.56;63.05;101657.31;5022456;28;20033;-69
2023/08/13 03:11:13;;;;;;;0.10;0.10;;;;;;;24.17;58.43;101649.41;5018956;28;20667;-70
2023/08/13 03:13:38;;;;;;;0.10;0.10;;;;;;;24.16;57.89;101643.09;5012632;28;20029;-70
2023/08/13 03:16:04;;;;;;;0.10;0.10;;;;;;;24.04;58.23;101648.19;5027248;28;20042;-70
2023/08/13 03:18:30;;;;;;;0.00;0.00;;;;;;;24.10;57.86;101646.19;5012371;28;20038;-68
2023/08/13 03:20:55;;;;;;;0.10;0.10;;;;;;;24.25;57.64;101655.03;5012240;28;20525;-70
2023/08/13 03:23:21;;;;;;;0.10;0.10;;;;;;;23.70;58.55;101643.97;5017125;28;20108;-69
2023/08/13 03:25:46;;;;;;;0.08;0.08;;;;;;;24.05;58.22;101649.84;5014362;28;20034;-69
2023/08/13 03:28:11;;;;;;;0.10;0.10;;;;;;;24.14;57.72;101650.00;5027394;28;20381;-69
2023/08/13 03:30:37;;;;;;;0.10;0.10;;;;;;;23.79;58.58;101650.44;5012441;28;20046;-69
2023/08/13 03:33:02;;;;;;;0.08;0.08;;;;;;;24.04;58.17;101647.38;5012078;28;20501;-69
2023/08/13 03:35:28;;;;;;;0.10;0.10;;;;;;;23.81;59.38;101648.22;5017962;28;20120;-69
2023/08/13 03:37:53;;;;;;;0.10;0.10;;;;;;;23.23;59.97;101656.50;5022723;28;20033;-70
2023/08/13 03:40:18;;;;;;;0.10;0.10;;;;;;;23.68;59.56;101647.00;5026317;28;20014;-68
2023/08/13 03:42:44;;;;;;;0.10;0.10;;;;;;;23.78;59.08;101655.13;5012096;28;20030;-69
2023/08/13 03:45:09;;;;;;;0.10;0.10;;;;;;;23.57;59.09;101650.97;5020793;28;20084;-69
2023/08/13 03:47:35;;;;;;;0.10;0.10;;;;;;;23.41;59.75;101653.06;5028151;28;20041;-69
2023/08/13 03:50:01;;;;;;;0.10;0.10;;;;;;;23.54;59.39;101654.31;5028231;28;20032;-69
2023/08/13 03:52:26;;;;;;;0.00;0.00;;;;;;;23.36;60.21;101658.63;5011686;28;20029;-68
2023/08/13 03:54:52;;;;;;;0.10;0.10;;;;;;;23.27;60.21;101662.25;5018488;28;20421;-68
2023/08/13 03:57:17;;;;;;;0.10;0.10;;;;;;;23.64;59.10;101654.19;5025198;28;20095;-69
2023/08/13 03:59:43;;;;;;;0.10;0.10;;;;;;;23.25;60.69;101664.47;5013955;28;20046;-69
2023/08/13 04:02:08;;;;;;;0.10;0.10;;;;;;;24.00;58.21;101660.06;5001924;28;20046;-69
2023/08/13 04:04:33;;;;;;;0.03;0.03;;;;;;;24.08;57.98;101659.41;4999462;28;20433;-69
2023/08/13 04:06:59;;;;;;;0.10;0.10;;;;;;;23.41;59.75;101665.94;5005956;28;20045;-69
2023/08/13 04:09:24;;;;;;;0.10;0.10;;;;;;;23.76;58.78;101660.09;5009759;28;20061;-69
2023/08/13 04:11:49;;;;;;;0.00;0.00;;;;;;;23.14;61.17;101669.22;5009326;28;20037;-68
2023/08/13 04:14:15;;;;;;;0.10;0.10;;;;;;;23.79;58.21;101664.16;5011038;28;20034;-70
2023/08/13 04:16:40;;;;;;;0.10;0.10;;;;;;;23.37;60.35;101671.22;5009180;28;20030;-69
2023/08/13 04:19:06;;;;;;;0.10;0.10;;;;;;;23.76;58.64;101656.50;5010969;28;20041;-70
2023/08/13 04:21:31;;;;;;;0.10;0.10;;;;;;;23.36;59.29;101668.75;5009952;28;20034;-68
2023/08/13 04:23:57;;;;;;;0.10;0.10;;;;;;;23.28;59.71;101663.88;5017632;28;20080;-70
2023/08/13 04:26:23;;;;;;;0.10;0.10;;;;;;;23.43;59.61;101667.31;5017537;28;20045;-68
2023/08/13 04:28:49;;;;;;;0.10;0.10;;;;;;;22.70;61.99;101669.31;5024076;28;20116;-69
2023/08/13 04:31:20;;;;;;;0.10;0.10;;;;;;;23.30;60.31;101665.22;5017274;28;20541;-70
2023/08/13 04:33:46;;;;;;;0.10;0.10;;;;;;;23.16;61.75;101671.66;5022889;28;20037;-68
2023/08/13 04:36:11;;;;;;;0.10;0.10;;;;;;;23.13;61.05;101664.03;5025947;28;20041;-69
2023/08/13 04:38:36;;;;;;;0.10;0.10;;;;;;;23.70;58.84;101658.50;5018941;28;20029;-69
2023/08/13 04:41:02;;;;;;;0.10;0.10;;;;;;;23.83;58.00;101656.97;5018770;28;20032;-70
2023/08/13 04:43:28;;;;;;;0.05;0.05;;;;;;;23.90;57.86;101660.97;5009911;28;20540;-69
2023/08/13 04:45:53;;;;;;;0.10;0.10;;;;;;;23.21;60.58;101661.47;5025992;28;20033;-69
2023/08/13 04:48:41;;;;;;;0.10;0.10;;;;;;;23.50;59.65;101664.22;5010796;28;20037;-69
2023/08/13 04:51:07;;;;;;;0.10;0.10;;;;;;;22.70;63.16;101669.31;5021368;28;20030;-68
2023/08/13 04:53:32;;;;;;;0.10;0.10;;;;;;;23.72;59.29;101659.03;5014299;28;20041;-69
2023/08/13 04:55:58;;;;;;;0.10;0.10;;;;;;;24.00;58.11;101657.31;5010236;28;20033;-69
2023/08/13 04:58:23;;;;;;;0.10;0.10;;;;;;;24.14;57.18;101660.97;5010896;28;20088;-69
2023/08/13 05:00:48;;;;;;;0.10;0.10;;;;;;;24.25;57.19;101655.03;5016915;28;20084;-69
2023/08/13 05:03:14;;;;;;;0.10;0.10;;;;;;;24.09;57.63;101658.31;5009031;28;20030;-70
2023/08/13 05:05:39;;;;;;;0.10;0.10;;;;;;;23.25;62.06;101664.47;5016555;28;20030;-69
2023/08/13 05:08:05;;;;;;;0.00;0.00;;;;;;;23.84;59.40;101659.41;5014038;28;20072;-69
2023/08/13 05:10:32;;;;;;;0.10;0.10;;;;;;;24.24;58.97;101658.91;5022930;28;20022;-69
2023/08/13 05:12:58;;;;;;;0.10;0.10;;;;;;;24.29;58.32;101664.31;5010068;28;20133;-68
2023/08/13 05:15:23;;;;;;;0.10;0.10;;;;;;;24.69;57.13;101657.41;5008687;28;20030;-69
2023/08/13 05:17:48;;;;;;;0.10;0.10;;;;;;;23.89;59.42;101661.28;5016464;28;20056;-68
2023/08/13 05:20:14;;;;;;;0.10;0.10;;;;;;;24.30;58.42;101663.22;5015263;28;20038;-68
2023/08/13 05:22:39;;;;;;;0.10;0.10;;;;;;;23.83;60.37;101662.47;5021381;28;20521;-70
2023/08/13 05:25:05;;;;;;;0.10;0.10;;;;;;;23.90;60.73;101669.22;5008685;28;20169;-68
2023/08/13 05:27:30;;;;;;;0.10;0.10;;;;;;;24.02;59.67;101663.34;5009381;28;20034;-70
2023/08/13 05:29:56;;;;;;;0.10;0.10;;;;;;;23.17;63.24;101665.09;5019070;28;20099;-68
2023/08/13 05:32:22;;;;;;;0.10;0.10;;;;;;;23.54;61.43;101668.03;5020859;28;20506;-70
2023/08/13 05:34:48;;;;;;;0.00;0.00;;;;;;;24.34;59.75;101664.28;5008192;28;20041;-68
2023/08/13 05:37:13;;;;;;;0.10;0.10;;;;;;;23.89;61.06;101666.78;5026599;28;20413;-67
2023/08/13 05:39:39;;;;;;;0.10;0.10;;;;;;;24.49;58.74;101665.97;5010719;28;20324;-69
2023/08/13 05:42:05;;;;;;;0.00;0.00;;;;;;;24.24;60.79;101666.34;5009406;28;20058;-68
2023/08/13 05:44:30;;;;;;;0.10;0.10;;;;;;;24.94;57.72;101669.97;5009375;28;20022;-69
2023/08/13 05:46:56;;;;;;;0.00;0.00;;;;;;;25.19;57.00;101675.84;5009696;28;20080;-69
2023/08/13 05:49:21;;;;;;;0.10;0.10;;;;;;;24.29;60.43;101675.31;5008270;28;20042;-69
2023/08/13 05:51:48;;;;;;;0.10;0.10;;;;;;;24.89;58.48;101679.09;5009407;28;20050;-69
2023/08/13 05:54:14;;;;;;;0.00;0.00;;;;;;;25.01;58.05;101679.47;5009332;28;20103;-69
2023/08/13 05:56:40;;;;;;;0.10;0.10;;;;;;;24.81;58.86;101674.28;5015541;28;20117;-69
2023/08/13 05:59:05;;;;;;;0.05;0.05;;;;;;;24.81;58.94;101673.47;5013643;28;20049;-68
2023/08/13 06:01:31;;;;;;;0.10;0.10;;;;;;;24.88;58.87;101687.66;5028506;28;20033;-69
2023/08/13 06:03:56;;;;;;;0.10;0.10;;;;;;;24.67;59.24;101684.38;5017434;28;20030;-69
2023/08/13 06:06:21;;;;;;;0.08;0.08;;;;;;;25.06;58.48;101684.06;5024060;28;20041;-68
2023/08/13 06:08:48;;;;;;;0.10;0.10;;;;;;;25.50;57.13;101691.81;5008956;28;20522;-68
2023/08/13 06:11:13;;;;;;;0.08;0.08;;;;;;;24.78;59.80;101696.06;5008927;28;20088;-69
2023/08/13 06:13:39;;;;;;;0.05;0.05;;;;;;;25.23;58.29;101700.81;5009345;28;20034;-69
2023/08/13 06:16:06;;;;;;;0.10;0.10;;;;;;;23.94;62.24;101697.72;5015426;28;20121;-70
2023/08/13 06:18:32;;;;;;;0.05;0.05;;;;;;;23.74;63.32;101708.16;5025287;28;20036;-69
2023/08/13 06:20:57;;;;;;;0.05;0.05;;;;;;;24.28;61.92;101703.09;5008937;28;20493;-69
2023/08/13 06:23:23;;;;;;;0.10;0.10;;;;;;;24.51;61.75;101704.16;5008952;28;20093;-68
2023/08/13 06:25:48;;;;;;;0.10;0.10;;;;;;;23.35;65.43;101711.03;5011648;28;20025;-69
2023/08/13 06:28:13;;;;;;;0.00;0.00;;;;;;;25.02;59.73;101705.84;5015160;28;20022;-70
2023/08/13 06:30:39;;;;;;;0.00;0.00;;;;;;;23.92;62.87;101710.13;5008826;28;20041;-68
2023/08/13 06:33:04;;;;;;;0.00;0.00;;;;;;;24.07;62.47;101712.72;5015222;28;20026;-68
2023/08/13 06:35:30;;;;;;;0.10;0.10;;;;;;;23.04;66.78;101715.91;5016521;28;20026;-70
2023/08/13 06:37:55;;;;;;;0.00;0.00;;;;;;;23.99;64.19;101705.91;5026776;28;20483;-70
2023/08/13 06:40:20;;;;;;;0.08;0.08;;;;;;;23.53;64.24;101710.28;5013962;28;20022;-68
2023/08/13 06:42:46;;;;;;;0.10;0.10;;;;;;;23.73;64.98;101701.84;5024907;28;20439;-70
2023/08/13 06:45:12;;;;;;;0.00;0.00;;;;;;;23.74;64.44;101711.72;5008578;28;20044;-70
2023/08/13 06:47:38;;;;;;;0.10;0.10;;;;;;;24.16;63.31;101706.28;5014209;28;20034;-70
2023/08/13 06:50:04;;;;;;;0.00;0.00;;;;;;;23.90;63.90;101710.41;5028478;28;20404;-69
2023/08/13 06:52:29;;;;;;;0.00;0.00;;;;;;;24.52;62.48;101706.59;5012918;28;20029;-70
2023/08/13 06:54:55;;;;;;;0.00;0.00;;;;;;;25.12;59.88;101713.91;5024927;28;20045;-68
2023/08/13 06:57:20;;;;;;;0.00;0.00;;;;;;;24.05;63.61;101707.53;5008298;28;20041;-70
2023/08/13 06:59:45;;;;;;;0.10;0.10;;;;;;;24.66;61.89;101710.25;5008642;28;20034;-69
2023/08/13 07:02:11;;;;;;;0.00;0.00;;;;;;;23.73;64.15;101699.09;5008417;28;20030;-69
2023/08/13 07:04:37;;;;;;;0.00;0.00;;;;;;;24.39;62.75;101707.34;5009170;28;20054;-69
2023/08/13 07:07:02;;;;;;;0.00;0.00;;;;;;;23.79;64.73;101703.41;5008415;28;20042;-70
2023/08/13 07:09:28;;;;;;;0.00;0.00;;;;;;;25.28;59.90;101697.97;5015015;28;20084;-70
2023/08/13 07:11:54;;;;;;;0.00;0.00;;;;;;;25.33;58.97;101700.63;5019200;28;20048;-69
2023/08/13 07:14:19;;;;;;;0.10;0.10;;;;;;;24.06;62.72;101698.16;5028264;28;20389;-70
2023/08/13 07:16:45;;;;;;;0.00;0.00;;;;;;;24.24;62.25;101702.03;5012100;28;20505;-69
2023/08/13 07:19:11;;;;;;;0.00;0.00;;;;;;;25.19;59.64;101710.78;5014964;28;20042;-68
2023/08/13 07:21:36;;;;;;;0.00;0.00;;;;;;;25.54;57.07;101709.34;5008024;28;20022;-69
2023/08/13 07:24:03;;;;;;;0.00;0.00;;;;;;;24.18;62.37;101708.72;5010700;28;20050;-68
2023/08/13 07:26:29;;;;;;;0.00;0.00;;;;;;;25.26;58.47;101703.78;5014734;28;20038;-70
2023/08/13 07:28:55;;;;;;;0.00;0.00;;;;;;;25.36;57.85;101704.69;5012898;28;20532;-71
2023/08/13 07:31:20;;;;;;;0.00;0.00;;;;;;;24.92;59.39;101708.75;5019617;28;20474;-69
2023/08/13 07:33:46;;;;;;;0.00;0.00;;;;;;;24.65;59.87;101714.09;5012228;28;20026;-69
2023/08/13 07:36:11;;;;;;;0.00;0.00;;;;;;;25.07;58.47;101703.00;5017617;28;20376;-70
2023/08/13 07:38:37;;;;;;;0.00;0.00;;;;;;;25.49;58.23;101701.19;5017294;28;20029;-70
2023/08/13 07:41:03;;;;;;;0.00;0.00;;;;;;;24.34;61.20;101704.66;5012987;28;20041;-68
2023/08/13 07:43:30;;;;;;;0.00;0.00;;;;;;;24.68;60.02;101704.44;5021672;28;20026;-69
2023/08/13 07:45:55;;;;;;;0.00;0.00;;;;;;;25.17;58.23;101707.53;5011942;28;21538;-70
2023/08/13 07:48:21;;;;;;;0.00;0.00;;;;;;;24.82;59.69;101708.13;5015964;28;20054;-69
2023/08/13 07:50:46;;;;;;;0.00;0.00;;;;;;;26.05;55.45;101710.81;5018288;28;20505;-70
2023/08/13 07:53:12;;;;;;;0.00;0.00;;;;;;;26.06;56.13;101709.69;5012863;28;20025;-68
2023/08/13 07:55:37;;;;;;;0.00;0.00;;;;;;;25.61;57.49;101715.28;5022725;28;20021;-69
2023/08/13 07:58:03;;;;;;;0.00;0.00;;;;;;;26.03;55.26;101713.06;5010542;28;20058;-68
2023/08/13 08:00:28;;;;;;;0.00;0.00;;;;;;;25.67;56.80;101703.84;5017914;28;20449;-70
2023/08/13 08:02:54;;;;;;;0.00;0.00;;;;;;;26.25;54.53;101698.56;5013850;28;20041;-70
2023/08/13 08:05:20;;;;;;;0.00;0.00;;;;;;;26.70;53.76;101703.06;5011656;28;20033;-68
2023/08/13 08:07:46;;;;;;;0.00;0.00;;;;;;;25.35;57.42;101703.06;5021666;28;20465;-69
2023/08/13 08:10:11;;;;;;;0.00;0.00;;;;;;;25.78;55.88;101705.31;4989785;28;20042;-70
2023/08/13 08:12:37;;;;;;;0.00;0.00;;;;;;;26.35;55.02;101703.84;5005507;28;20034;-71
2023/08/13 08:15:04;;;;;;;0.05;0.05;;;;;;;25.80;56.21;101708.56;5010793;28;20072;-68
2023/08/13 08:17:30;;;;;;;0.00;0.00;;;;;;;27.07;52.80;101704.63;5010145;28;20168;-67
2023/08/13 08:19:56;;;;;;;0.10;0.10;;;;;;;26.86;54.07;101707.09;5009744;28;20451;-69
2023/08/13 08:22:22;;;;;;;0.00;0.00;;;;;;;26.83;53.54;101709.63;5007934;28;20053;-69
2023/08/13 08:24:47;;;;;;;0.00;0.00;;;;;;;26.62;52.93;101708.47;5010174;28;20034;-68
2023/08/13 08:27:13;;;;;;;0.00;0.00;;;;;;;27.06;51.65;101702.19;5009626;28;20071;-68
2023/08/13 08:29:38;;;;;;;0.00;0.00;;;;;;;26.55;51.71;101695.13;5008354;28;20524;-69
2023/08/13 08:32:04;;;;;;;0.00;0.00;;;;;;;26.30;53.16;101694.88;5008861;28;20030;-68
2023/08/13 08:34:30;;;;;;;0.00;0.00;;;;;;;27.33;50.80;101697.34;5008912;28;20052;-68
2023/08/13 08:36:56;;;;;;;0.00;0.00;;;;;;;27.53;50.31;101701.53;5008560;28;20371;-68
2023/08/13 08:39:21;;;;;;;0.00;0.00;;;;;;;27.25;50.93;101703.63;5008302;28;20044;-69
2023/08/13 08:41:47;;;;;;;0.00;0.00;;;;;;;27.90;49.14;101698.25;5010154;28;20053;-68
2023/08/13 08:44:23;;;;;;;0.00;0.00;;;;;;;28.70;47.99;101694.22;5009773;28;20033;-67
2023/08/13 08:46:50;;;;;;;0.00;0.00;;;;;;;28.58;47.77;101695.66;5008157;28;20414;-67
2023/08/13 08:49:18;;;;;;;0.00;0.00;;;;;;;27.51;48.14;101703.78;5011815;28;20556;-67
2023/08/13 08:51:44;;;;;;;0.00;0.00;;;;;;;26.94;51.04;101698.06;5008349;28;20472;-67
2023/08/13 08:54:10;;;;;;;0.00;0.00;;;;;;;26.69;51.14;101693.13;5010889;28;20033;-69
2023/08/13 08:56:35;;;;;;;0.00;0.00;;;;;;;26.90;51.30;101687.97;5007905;28;20644;-70
2023/08/13 08:59:02;;;;;;;0.00;0.00;;;;;;;26.33;52.32;101695.06;5009053;28;20112;-69
2023/08/13 09:01:28;;;;;;;0.00;0.00;;;;;;;26.89;50.62;101695.41;5008608;28;20030;-68
2023/08/13 09:03:53;;;;;;;0.00;0.00;;;;;;;27.35;50.12;101686.81;5009638;28;20052;-68
2023/08/13 09:06:18;;;;;;;0.00;0.00;;;;;;;27.62;47.87;101694.91;5014140;28;20034;-69
2023/08/13 09:08:44;;;;;;;0.00;0.00;;;;;;;26.98;49.77;101680.88;5011686;28;20393;-69
2023/08/13 09:11:10;;;;;;;0.00;0.00;;;;;;;26.96;49.76;101708.78;5009593;28;20045;-69
2023/08/13 09:13:35;;;;;;;0.00;0.00;;;;;;;27.77;48.47;101677.09;5009980;28;20026;-70
2023/08/13 09:16:01;;;;;;;0.00;0.00;;;;;;;27.24;48.49;101681.84;5009196;28;20049;-68
2023/08/13 09:18:26;;;;;;;0.00;0.00;;;;;;;27.85;49.13;101681.00;5009308;28;20026;-69
2023/08/13 09:20:51;;;;;;;0.00;0.00;;;;;;;27.16;48.16;101680.69;5009856;28;20034;-70
2023/08/13 09:23:24;;;;;;;0.00;0.00;;;;;;;27.60;48.25;101674.25;5009979;28;20037;-70
2023/08/13 09:25:54;;;;;;;0.00;0.00;;;;;;;27.47;49.13;101677.94;5007725;28;20030;-72
2023/08/13 09:28:20;;;;;;;0.00;0.00;;;;;;;27.70;49.33;101673.97;5010322;28;20022;-71
2023/08/13 09:30:46;;;;;;;0.00;0.00;;;;;;;28.37;47.28;101667.00;5009541;28;20034;-70
2023/08/13 09:33:14;;;;;;;0.00;0.00;;;;;;;27.19;48.43;101679.22;5009188;28;20452;-70
2023/08/13 09:35:41;;;;;;;0.00;0.00;;;;;;;28.65;46.60;101664.75;5008905;28;20034;-68
2023/08/13 09:38:07;;;;;;;0.00;0.00;;;;;;;26.88;49.52;101666.22;5009528;28;20096;-69
2023/08/13 09:40:33;;;;;;;0.00;0.00;;;;;;;26.71;49.70;101679.06;5010154;28;20017;-69
2023/08/13 09:42:58;;;;;;;0.00;0.00;;;;;;;26.70;50.87;101669.13;5009304;28;20485;-69
2023/08/13 09:45:28;;;;;;;0.00;0.00;;;;;;;27.60;48.60;101674.25;5007828;28;20065;-70
2023/08/13 09:47:55;;;;;;;0.00;0.00;;;;;;;27.99;48.13;101660.44;5006406;28;20030;-69
2023/08/13 09:50:23;;;;;;;0.00;0.00;;;;;;;28.04;48.23;101668.56;5008307;28;20506;-70
2023/08/13 09:52:50;;;;;;;0.00;0.00;;;;;;;27.53;49.08;101673.91;5008778;28;20382;-68
2023/08/13 09:55:21;;;;;;;0.00;0.00;;;;;;;28.09;48.04;101662.09;5009107;28;20022;-72
2023/08/13 09:57:48;;;;;;;0.00;0.00;;;;;;;27.66;48.40;101665.50;5007505;28;20109;-68
2023/08/13 10:00:14;;;;;;;0.00;0.00;;;;;;;27.17;49.84;101668.50;5007487;28;20026;-70
2023/08/13 10:02:40;;;;;;;0.00;0.00;;;;;;;26.90;50.91;101669.47;5006859;28;20379;-68
2023/08/13 10:05:06;;;;;;;0.00;0.00;;;;;;;26.52;51.31;101672.84;5008564;28;20033;-68
2023/08/13 10:07:32;;;;;;;0.00;0.00;;;;;;;27.98;48.82;101667.09;5008985;28;20029;-68
2023/08/13 10:10:02;;;;;;;0.00;0.00;;;;;;;27.80;48.07;101665.38;5008489;28;21010;-67
2023/08/13 10:12:28;;;;;;;0.00;0.00;;;;;;;28.18;47.17;101660.16;5007850;28;20065;-68
2023/08/13 10:14:54;;;;;;;0.00;0.00;;;;;;;27.60;48.04;101666.78;5005783;28;20054;-68
2023/08/13 10:17:19;;;;;;;0.00;0.00;;;;;;;28.28;47.03;101659.84;5008230;28;20109;-67
2023/08/13 10:19:50;;;;;;;0.00;0.00;;;;;;;27.85;47.23;101670.78;5008681;28;20037;-69
2023/08/13 10:22:36;;;;;;;0.00;0.00;;;;;;;28.97;45.74;101663.41;5007426;28;20049;-68
2023/08/13 10:25:03;;;;;;;0.00;0.00;;;;;;;28.25;47.31;101666.00;5006551;28;20029;-69
2023/08/13 10:27:29;;;;;;;0.00;0.00;;;;;;;27.73;47.90;101662.28;5008134;28;20034;-68
2023/08/13 10:30:13;;;;;;;0.00;0.00;;;;;;;28.31;46.92;101662.75;5007121;28;20551;-67
2023/08/13 10:32:49;;;;;;;0.00;0.00;;;;;;;29.15;45.14;101657.53;5007526;28;20037;-70
2023/08/13 10:35:34;;;;;;;0.00;0.00;;;;;;;28.56;45.85;101659.22;5007128;28;20034;-70
2023/08/13 10:38:01;;;;;;;0.00;0.00;;;;;;;27.99;47.66;101649.38;5007825;28;20025;-70
2023/08/13 10:40:27;;;;;;;0.00;0.00;;;;;;;28.47;46.92;101644.56;5008820;28;20426;-69
2023/08/13 10:42:57;;;;;;;0.00;0.00;;;;;;;28.96;46.35;101640.44;5008324;28;20068;-68
2023/08/13 10:45:32;;;;;;;0.00;0.00;;;;;;;29.54;44.76;101645.34;5008013;28;20033;-69
2023/08/13 10:47:58;;;;;;;0.00;0.00;;;;;;;29.98;43.35;101649.50;5007095;28;20030;-69
2023/08/13 10:50:30;;;;;;;0.00;0.00;;;;;;;28.09;47.21;101645.50;5006664;28;20458;-70
2023/08/13 10:53:05;;;;;;;0.00;0.00;;;;;;;28.46;46.35;101637.38;5007521;28;20029;-69
2023/08/13 10:55:36;;;;;;;0.00;0.00;;;;;;;27.74;47.26;101655.63;5008192;28;20021;-69
2023/08/13 10:58:02;;;;;;;0.00;0.00;;;;;;;26.94;48.25;101644.81;5007366;28;20046;-67
2023/08/13 11:00:27;;;;;;;0.00;0.00;;;;;;;27.20;48.67;101644.97;5007937;28;20034;-68
2023/08/13 11:02:57;;;;;;;0.00;0.00;;;;;;;27.15;49.49;101643.16;5009840;28;20053;-67
2023/08/13 11:05:22;;;;;;;0.00;0.00;;;;;;;27.02;50.38;101654.28;5011917;28;20038;-67
2023/08/13 11:07:48;;;;;;;0.00;0.00;;;;;;;27.11;50.96;101653.19;5012921;28;20378;-68
2023/08/13 11:10:18;;;;;;;0.00;0.00;;;;;;;27.68;48.60;101660.47;5012309;28;20029;-67
2023/08/13 11:12:48;;;;;;;0.00;0.00;;;;;;;27.02;49.51;101670.84;5011680;28;20494;-67
2023/08/13 11:15:14;;;;;;;0.00;0.00;;;;;;;27.71;48.21;101654.31;5010195;28;20037;-68
2023/08/13 11:17:46;;;;;;;0.00;0.00;;;;;;;28.23;46.93;101649.75;5011447;28;20041;-68
2023/08/13 11:20:13;;;;;;;0.00;0.00;;;;;;;27.71;48.38;101656.28;5010137;28;20037;-68
2023/08/13 11:22:40;;;;;;;0.00;0.00;;;;;;;28.38;46.84;101652.00;5012015;28;20690;-70